Fry, Arizona
Current Conditions -  °F | °C
As of 4:56 PM on Sunday 23 Nov 2014 (Local Time) from KFHU Reporting Station
Clear Clear  
Wind Chill: 12°   Ceiling: Unl
Heat Index: 12°   Visibility: 10mi
Dew Point: -8°   Wind: 17mph
Humidity: 25%   Direction: 300°WNW
Pressure: 30.06"   Gusts: 24mph
Location:  31.5289°N, 110.258°W
Report Text: KFHU 232356Z AUTO 30015G21KT 10SM CLR 12/M08 A3006 RMK AO2 PK WND 30026/2315 SLP161 T01171078 10167 20117 53012 $
Loading
Personal Weather Stations






























Interactive Weather Map New forecast layout! Learn more

10-Day Weather Forecast

Advertisements
Track Severe Weather on mobile